Burns Harbor, IN

1:42 AM CST on November 23, 2014 (GMT -0600)
Roxy Weather in Tamarack | Change Station
CLOSE
Current Station
Personal Weather Station
Location: Chesterton, IN
Elevation: 650 ft
Nearby Weather Stations

Elev 650 ft 41.59 °N, 87.05 °W | Updated 1 minute ago

Overcast
Overcast
51.1 °F
Feels Like 51.1 °F
N
6.9
Wind Variable Wind from West
Gusts 12.1 mph

Today
High -- | Low -- °F
--% Chance of Precip.
Yesterday
High -- | Low -- °F
Precip. -- in
6:46 AM 4:22 PM
New Moon, 1% visible
Pressure 29.86 in
Visibility 10.0 miles
Clouds Mostly Cloudy 1500 ft
Mostly Cloudy 6000 ft
Mostly Cloudy 10000 ft
Dew Point 48 °F
Humidity 91%
Rainfall 0.00 in
Snow Depth Not available.
UV 0 out of 12
Pollen .10 out of 12
Air Quality Not available.
Flu Activity Not available.
METAR KGYY 230735Z AUTO 19008G17KT 10SM BKN015 BKN060 BKN100 11/08 A2986 RMK AO2 T01080078

More Conditions Fewer Conditions

Pressure 29.86 in
Visibility 10.0 miles
Clouds Mostly Cloudy 1500 ft
Mostly Cloudy 6000 ft
Mostly Cloudy 10000 ft
Dew Point 48 °F
Humidity 91%
Rainfall 0.00 in
Snow Depth Not available.
UV 0 out of 12
Pollen .10 out of 12
Air Quality Not available.
Flu Activity Not available.
METAR KGYY 230735Z AUTO 19008G17KT 10SM BKN015 BKN060 BKN100 11/08 A2986 RMK AO2 T01080078

More Conditions Fewer Conditions

10-Day Weather Forecast

Almanac

Astronomy

Nov. 23, 2014 Rise Set
Actual Time
Civil Twilight
Nautical Twilight
Astronomical Twilight
Moon
Length of Visible Light
Length of Day
Tomorrow will be .
, % of the Moon is Illuminated

Today's Extremes

State Highs State Lows

Community

WunderPhotos

Upload Photos

1,773,024 photos uploaded!

WunderBlogs® & News

Nearby

Air Quality

  Air Quality AQ Index Pollutant
Not available.

Snow Depth

Station Depth Elevation

Earthquake Activity

City Distance Mag. Time & Date
Minimum magnitude displayed is 2.5.

Coastal Water Temperatures

Place Temperature

Nearby Weather Stations